aviador You're here:

KGAD Decoded Metar

GADSDEN MUNI in AL, USA
Report Time2017-11-23 21:56:00
UTC Time2017-11-23 22:19:49
Flight Rules vfr VFR
Wind080° at 04 kt
W.Decomp.*RWY 06: 3.7 kt HW 1.6 kt RCW
RWY 36: 0.5 kt HW 4.0 kt RCW
W.Rank080° ranks 8
Current wind is below 080° avg. (5.9)
Visibility9999 m
Phenomena:N/A
Clouds:N/A
Expected CloudBase > 3,600 ft AGL from Temp-Dew spread
CeilingNone
Temp14°C (ISA 0)
Dew Point05°C (55% RH)
AAT11.5°C
QNH1016 hPa
Density Alt604 ft
Elevation568 ft
Report Wrong Elevation
Raw Report
METAR KGAD 232156Z AUTO 08004KT 10SM CLR 14/05 A3001 RMK AO2 SLP166
T01390050=

Extra information for KGAD:More info

Metar Taf Metar & Taf Last 4 Metars F.Rules Stats Wind Profile Meteogram Temp Stats Airport Information Weather charts Add Link Nearby VenuesMetar ALERT Operation Metar Decoded Social comments

AIRNAV info for KGAD